Time;durP1;ratioP1;P1;durP2;ratioP2;P2;SDS_P1;SDS_P2;PMS_P1;PMS_P2;Temp;Humidity;BMP_temperature;BMP_pressure;BME280_temperature;BME280_humidity;BME280_pressure;Samples;Min_cycle;Max_cycle;Signal;HPM_P1;HPM_P2
2022/06/04 00:02:23;;;;;;;25.70;16.25;;;;;;;14.60;83.51;100841.45;712216;1177;116119;-72
2022/06/04 00:17:26;;;;;;;31.10;17.13;;;;;;;14.35;83.03;100829.78;712077;1177;116150;-72
2022/06/04 00:32:28;;;;;;;32.53;16.95;;;;;;;14.08;83.39;100812.94;712107;1178;115501;-72
2022/06/04 00:47:31;;;;;;;22.77;14.50;;;;;;;13.97;84.21;100800.78;711968;1177;115387;-72
2022/06/04 01:02:45;;;;;;;29.20;16.50;;;;;;;13.72;84.54;100789.07;712129;1177;115229;-72
2022/06/04 01:18:10;;;;;;;27.77;16.17;;;;;;;13.62;84.65;100781.20;712219;1177;116393;-72
2022/06/04 01:33:29;;;;;;;23.80;13.20;;;;;;;13.45;84.69;100775.67;712155;1178;115332;-72
2022/06/04 01:48:32;;;;;;;;;;;;;;;13.30;86.97;100769.14;712015;1177;114712;-81
2022/06/04 02:03:52;;;;;;;22.67;12.93;;;;;;;13.11;85.63;100754.21;712604;1178;102428;-79
2022/06/04 02:18:57;;;;;;;22.60;13.10;;;;;;;13.01;86.04;100741.03;712927;1179;115456;-79
2022/06/04 02:34:38;;;;;;;20.15;12.78;;;;;;;12.89;86.18;100734.27;712545;1179;115937;-79
2022/06/04 02:49:44;;;;;;;22.17;12.87;;;;;;;12.82;86.35;100734.81;712982;1179;116074;-79
2022/06/04 03:04:52;;;;;;;18.97;12.63;;;;;;;12.82;87.46;100711.11;712531;1180;115945;-79
2022/06/04 03:19:55;;;;;;;16.50;11.25;;;;;;;13.00;86.93;100718.33;712648;1178;116083;-80
2022/06/04 03:34:57;;;;;;;13.75;10.10;;;;;;;13.39;87.41;100720.89;712143;1180;116160;-78
2022/06/04 03:49:59;;;;;;;16.20;11.33;;;;;;;13.96;87.48;100709.44;712371;1177;115104;-79
2022/06/04 04:05:02;;;;;;;17.60;11.25;;;;;;;14.46;87.46;100695.80;712269;1177;115672;-79
2022/06/04 04:20:07;;;;;;;17.30;11.37;;;;;;;15.04;88.14;100698.11;712618;1177;115814;-79
2022/06/04 04:35:14;;;;;;;15.95;10.95;;;;;;;15.65;87.81;100701.59;713146;1178;116124;-79
2022/06/04 04:50:29;;;;;;;14.78;10.58;;;;;;;16.38;86.67;100705.50;713376;1180;114954;-79
2022/06/04 05:05:32;;;;;;;15.20;10.25;;;;;;;17.11;85.92;100706.52;713209;1178;115978;-80
2022/06/04 05:20:34;;;;;;;17.55;11.65;;;;;;;17.68;85.58;100723.28;712929;1180;116064;-78
2022/06/04 05:35:37;;;;;;;13.55;10.40;;;;;;;18.49;84.44;100725.74;713335;1178;115163;-86
2022/06/04 05:50:40;;;;;;;13.20;9.60;;;;;;;19.44;83.85;100726.28;713242;1178;114802;-73
2022/06/04 06:05:45;;;;;;;15.30;10.20;;;;;;;20.18;81.96;100746.70;713596;1178;115965;-73
2022/06/04 06:20:47;;;;;;;11.73;9.33;;;;;;;20.98;80.08;100729.86;713488;1180;114744;-73
2022/06/04 06:35:58;;;;;;;10.68;8.80;;;;;;;21.45;76.61;100739.82;713729;1179;115984;-76
2022/06/04 06:51:21;;;;;;;13.03;8.93;;;;;;;21.94;74.45;100758.59;713898;1178;114911;-75
2022/06/04 07:06:33;;;;;;;8.55;7.70;;;;;;;22.79;73.20;100757.39;713268;1178;115837;-78
2022/06/04 07:21:36;;;;;;;8.63;7.63;;;;;;;23.37;72.30;100744.23;713105;1180;115980;-77
2022/06/04 07:36:42;;;;;;;7.98;6.18;;;;;;;24.51;71.29;100735.72;712659;1179;115768;-77
2022/06/04 07:51:45;;;;;;;3.50;3.17;;;;;;;25.90;68.36;100731.13;712461;1178;114330;-76
2022/06/04 08:06:47;;;;;;;4.30;2.50;;;;;;;26.88;64.89;100725.60;712715;1177;115159;-81
2022/06/04 08:21:51;;;;;;;1.73;1.20;;;;;;;27.90;61.41;100732.39;712161;1179;115562;-74
2022/06/04 08:36:53;;;;;;;1.85;1.55;;;;;;;28.32;57.06;100731.31;712514;1177;115173;-74
2022/06/04 08:52:02;;;;;;;1.68;1.45;;;;;;;29.20;55.35;100728.09;712621;1178;115077;-74
2022/06/04 09:07:25;;;;;;;2.00;0.90;;;;;;;29.62;51.94;100729.48;713699;1180;116067;-73
2022/06/04 09:22:42;;;;;;;1.93;1.70;;;;;;;30.41;49.38;100707.58;712937;1179;115659;-77
2022/06/04 09:37:47;;;;;;;1.10;1.00;;;;;;;31.20;49.15;100709.53;713036;1177;115610;-78
2022/06/04 09:53:21;;;;;;;1.15;1.05;;;;;;;30.90;47.89;100710.14;713105;1178;114502;-79
2022/06/04 10:08:27;;;;;;;3.50;1.50;;;;;;;31.23;46.17;100702.77;713124;1177;115931;-75
2022/06/04 10:23:40;;;;;;;1.65;1.03;;;;;;;32.46;47.09;100698.76;713720;1177;115159;-80
2022/06/04 10:39:07;;;;;;;1.93;1.33;;;;;;;33.11;46.67;100682.62;713940;1177;114295;-79
2022/06/04 10:54:21;;;;;;;1.90;1.65;;;;;;;33.16;46.51;100685.31;713089;1178;114475;-80
2022/06/04 11:09:38;;;;;;;1.95;1.50;;;;;;;31.36;47.55;100675.19;712767;1179;115911;-79
2022/06/04 11:25:27;;;;;;;1.35;1.25;;;;;;;32.55;44.83;100683.55;712970;1180;114913;-79
2022/06/04 11:40:33;;;;;;;;;;;;;;;32.18;42.33;100679.22;712768;1177;115756;-76
2022/06/04 11:55:46;;;;;;;2.03;1.60;;;;;;;32.46;45.13;100674.33;712632;1177;100867;-77
2022/06/04 12:11:13;;;;;;;1.50;1.40;;;;;;;33.06;44.88;100668.24;712769;1170;115511;-76
2022/06/04 12:26:23;;;;;;;1.60;1.48;;;;;;;32.51;44.91;100683.27;713586;1179;114846;-76
2022/06/04 12:41:39;;;;;;;2.10;1.70;;;;;;;32.63;43.91;100682.98;712455;1177;115939;-76
2022/06/04 12:56:43;;;;;;;5.20;2.20;;;;;;;32.65;47.44;100678.11;713371;1180;115578;-76
2022/06/04 13:11:51;;;;;;;2.55;2.00;;;;;;;32.68;46.05;100663.97;714932;1177;115530;-75
2022/06/04 13:27:02;;;;;;;4.73;1.97;;;;;;;31.26;48.46;100663.50;714208;1180;116039;-75
2022/06/04 13:42:19;;;;;;;3.30;2.23;;;;;;;30.91;48.79;100659.50;714362;1180;114612;-76
2022/06/04 13:57:22;;;;;;;2.10;1.77;;;;;;;30.89;49.71;100665.18;714967;1180;114854;-76
2022/06/04 14:12:53;;;;;;;5.43;1.80;;;;;;;30.87;49.63;100665.45;713397;1180;115569;-73
2022/06/04 14:28:16;;;;;;;2.90;2.10;;;;;;;29.86;51.88;100686.79;715583;1177;116032;-73
2022/06/04 14:43:35;;;;;;;5.30;2.20;;;;;;;30.02;52.03;100686.95;712965;1177;115790;-73
2022/06/04 14:59:02;;;;;;;4.50;2.50;;;;;;;30.28;51.54;100695.31;712750;1177;115683;-73
2022/06/04 15:14:16;;;;;;;8.20;4.75;;;;;;;29.90;51.97;100689.81;712742;1177;115675;-73
2022/06/04 15:45:05;;;;;;;4.00;2.98;;;;;;;29.24;51.93;100725.72;712834;1177;115882;-73
2022/06/04 16:00:24;;;;;;;7.67;4.20;;;;;;;28.20;53.10;100730.53;713029;1177;115801;-73
2022/06/04 16:15:53;;;;;;;3.25;2.50;;;;;;;27.42;51.84;100730.06;713338;1177;115687;-74
2022/06/04 16:31:04;;;;;;;2.95;2.55;;;;;;;26.61;53.08;100736.78;712764;1179;115056;-71
2022/06/04 16:46:09;;;;;;;7.40;3.85;;;;;;;26.61;54.62;100750.23;712697;1177;115540;-75
2022/06/04 17:01:24;;;;;;;6.97;4.13;;;;;;;25.67;53.56;100770.26;713322;1177;115716;-75
2022/06/04 17:16:31;;;;;;;13.27;7.83;;;;;;;24.64;52.51;100783.12;712968;1177;115871;-77
2022/06/04 17:31:44;;;;;;;12.37;5.90;;;;;;;24.15;53.03;100785.42;712824;1179;115419;-75
2022/06/04 17:46:47;;;;;;;17.63;8.88;;;;;;;23.72;53.33;100791.31;712841;1177;115334;-75
2022/06/04 18:01:50;;;;;;;21.50;11.33;;;;;;;23.15;55.13;100801.67;712700;1177;115324;-73
2022/06/04 18:16:53;;;;;;;17.67;8.53;;;;;;;22.49;54.55;100804.04;712510;1178;116017;-75
2022/06/04 18:31:56;;;;;;;15.13;7.15;;;;;;;22.00;55.33;100816.56;712800;1177;114470;-74
2022/06/04 19:02:21;;;;;;;12.57;5.80;;;;;;;20.88;55.94;100839.52;712911;1180;114939;-76
2022/06/04 19:17:24;;;;;;;9.17;5.23;;;;;;;20.27;56.49;100853.94;712893;1178;115824;-76
2022/06/04 19:32:29;;;;;;;5.98;4.00;;;;;;;19.70;55.94;100853.53;712525;1179;115006;-76
2022/06/04 19:47:32;;;;;;;11.20;4.90;;;;;;;19.33;57.07;100871.16;712576;1178;115117;-75
2022/06/04 20:02:34;;;;;;;15.20;6.40;;;;;;;18.84;58.69;100868.83;712804;1177;114558;-74
2022/06/04 20:17:40;;;;;;;10.33;5.53;;;;;;;18.43;59.14;100878.65;712593;1180;116910;-74
2022/06/04 20:32:43;;;;;;;15.35;7.98;;;;;;;18.04;59.66;100905.16;712316;1180;116089;-74
2022/06/04 20:47:47;;;;;;;9.37;5.23;;;;;;;17.74;60.39;100926.09;712329;1177;116131;-75
2022/06/04 21:02:50;;;;;;;11.70;5.10;;;;;;;17.25;61.16;100935.67;712951;1179;115946;-75
2022/06/04 21:17:53;;;;;;;8.00;5.60;;;;;;;16.84;62.20;100974.44;712316;1180;115711;-74
2022/06/04 21:32:56;;;;;;;14.20;7.33;;;;;;;16.40;63.66;100972.74;712392;1180;115259;-73
2022/06/04 21:47:59;;;;;;;9.50;5.10;;;;;;;15.96;65.34;100965.67;712356;1178;115903;-74
2022/06/04 22:03:02;;;;;;;8.50;5.37;;;;;;;15.63;66.70;100978.59;712403;1179;115640;-74
2022/06/04 22:18:04;;;;;;;13.60;7.05;;;;;;;15.37;67.71;100967.94;712277;1178;115816;-76
2022/06/04 22:33:07;;;;;;;11.70;6.80;;;;;;;15.03;68.76;100981.77;712342;1180;115984;-75
2022/06/04 22:48:11;;;;;;;11.33;6.73;;;;;;;14.81;69.63;101005.78;712296;1180;115720;-74
2022/06/04 23:03:13;;;;;;;10.73;6.80;;;;;;;14.55;70.84;101007.39;712176;1180;115300;-74
2022/06/04 23:33:42;;;;;;;20.55;7.55;;;;;;;13.96;72.49;101008.33;712728;1180;115404;-74
2022/06/04 23:48:45;;;;;;;12.80;5.50;;;;;;;13.59;74.99;100989.72;712279;1179;115558;-74
